หน้าหลัก
METAR-TAF:

METAR-TAF

ท่าอากาศยาน :

Juneau, อะแลสกา, สหรัฐอเมริกา

ละติจูด: 58-21-17N, ลองจิจูด: 134-34-34W, ความสูง: 6 ม.

การสังเกตสภาพอากาศปัจจุบัน

รายงานได้ทำขึ้นเมื่อ 41 นาทีที่แล้ว ณ เวลา 18:53 UTC
ลม 8 นอตจากตะวันตก/ตะวันตกเฉียงใต้
อุณหภูมิ 7°C
ความชื้น 53%
ความกดอากาศ 1028 hPa
ทัศนวิสัย: 16.1 กม.
มีเมฆน้อยที่ความสูง 10000 ฟุต

METAR: PAJN 151853Z 24008KT 10SM FEW100 07/M02 A3036 RMK AO2 SLP280 T00721022

เวลา: 11:34 (19:34 UTC)

การพยากรณ์

รายงานได้ทำขึ้นเมื่อ 2 ชั่วโมงและ 14 นาทีที่แล้ว ณ เวลา 17:20 UTC
การพยากรณ์มีผลตั้งแต่วันที่ 15 ณ เวลา 18 UTC จนถึงวันที่ 16 ณ เวลา 18 UTC
ลม 5 นอตจากตะวันตก
ทัศนวิสัย: 10 กม.
ท้องฟ้าแจ่มใส

TAF: PAJN 151720Z 1518/1618 26005KT P6SM SKC

สังเกตการณ์สภาพอากาศและพยากรณ์อากาศของสนามบินมากกว่า 4000 แห่ง (รายงาน METAR และ TAF).

สถานีที่ดูได้จะแสดงไว้ด้วยจุดสีเหลืองและสีแดงบนแผนที่.

เลื่อนเมาส์ไปเหนือจุดเพื่อดูชื่อสถานี.

แล้วคลิกเพื่อดูสังเกตการณ์และการพยากรณ์สภาพอากาศ.

ในการเปลี่ยนแผนที่: คลิกที่ปุ่มสีเขียวที่มีกากบาทสีดำเพื่อซูมเข้า; ที่ปุ่มสีเขียวที่มีขีดเพื่อซูมออก; หรือที่ลูกศรสีเขียวเพื่อไปยังแผนที่ที่อยู่ติดกัน.


METAR-TAF: